createdAt,value
2023-05-24T00:01:57.604Z,101012.91
2023-05-24T00:04:30.586Z,101005.50
2023-05-24T00:06:58.279Z,101011.94
2023-05-24T00:09:25.243Z,101006.88
2023-05-24T00:11:51.999Z,101003.53
2023-05-24T00:14:18.771Z,101003.22
2023-05-24T00:16:46.647Z,101011.28
2023-05-24T00:19:18.471Z,101011.00
2023-05-24T00:21:46.120Z,101010.69
2023-05-24T00:24:13.134Z,101008.72
2023-05-24T00:26:40.232Z,101008.94
2023-05-24T00:29:07.020Z,101009.38
2023-05-24T00:31:34.286Z,101016.38
2023-05-24T00:34:01.040Z,101015.75
2023-05-24T00:36:27.825Z,101017.66
2023-05-24T00:38:54.615Z,101005.88
2023-05-24T00:41:21.403Z,101006.34
2023-05-24T00:43:48.138Z,101002.53
2023-05-24T00:46:18.171Z,100991.84
2023-05-24T00:48:46.087Z,100992.50
2023-05-24T00:51:14.871Z,100995.50
2023-05-24T00:53:49.043Z,100992.34
2023-05-24T00:56:17.602Z,100981.19
2023-05-24T00:58:45.215Z,100975.97
2023-05-24T01:01:12.903Z,100983.31
2023-05-24T01:03:40.305Z,100985.19
2023-05-24T01:06:08.874Z,100985.19
2023-05-24T01:08:58.927Z,100991.09
2023-05-24T01:11:53.592Z,100996.84
2023-05-24T01:14:36.515Z,100985.25
2023-05-24T01:17:34.762Z,100982.50
2023-05-24T01:20:09.177Z,100985.22
2023-05-24T01:22:52.408Z,100990.06
2023-05-24T01:25:25.077Z,100997.16
2023-05-24T01:27:52.502Z,100999.25
2023-05-24T01:30:20.101Z,100998.59
2023-05-24T01:32:46.995Z,100996.13
2023-05-24T01:35:13.758Z,100992.16
2023-05-24T01:37:40.511Z,100999.38
2023-05-24T01:40:08.532Z,100996.81
2023-05-24T01:42:45.884Z,100992.75
2023-05-24T01:45:26.003Z,100996.13
2023-05-24T01:48:23.119Z,100996.50
2023-05-24T01:50:59.105Z,100998.81
2023-05-24T01:53:32.829Z,100991.25
2023-05-24T01:56:02.494Z,100994.22
2023-05-24T01:58:31.316Z,100990.22
2023-05-24T02:00:58.378Z,100993.16
2023-05-24T02:03:25.338Z,100993.44
2023-05-24T02:05:52.117Z,100991.44
2023-05-24T02:08:18.858Z,100988.28
2023-05-24T02:10:45.726Z,100983.88
2023-05-24T02:13:12.469Z,100991.97
2023-05-24T02:15:41.934Z,100982.69
2023-05-24T02:18:08.850Z,100992.84
2023-05-24T02:20:37.290Z,100994.31
2023-05-24T02:23:04.716Z,100996.44
2023-05-24T02:25:33.117Z,101000.44
2023-05-24T02:28:00.609Z,101005.94
2023-05-24T02:30:27.602Z,101002.97
2023-05-24T02:32:54.391Z,101004.03
2023-05-24T02:35:21.312Z,101000.06
2023-05-24T02:37:48.138Z,101005.56
2023-05-24T02:40:15.208Z,101002.19
2023-05-24T02:42:42.022Z,101012.72
2023-05-24T02:45:09.147Z,101013.38
2023-05-24T02:47:35.954Z,101001.34
2023-05-24T02:50:02.839Z,101004.28
2023-05-24T02:52:29.610Z,101013.13
2023-05-24T02:54:56.383Z,101008.09
2023-05-24T02:57:23.223Z,101020.53
2023-05-24T02:59:50.010Z,101012.94
2023-05-24T03:02:18.140Z,101018.84
2023-05-24T03:04:44.855Z,101006.41
2023-05-24T03:07:11.591Z,101006.81
2023-05-24T03:09:38.364Z,101008.94
2023-05-24T03:12:05.917Z,101010.63
2023-05-24T03:14:32.647Z,101012.91
2023-05-24T03:16:59.364Z,101008.47
2023-05-24T03:19:26.131Z,101012.91
2023-05-24T03:21:52.865Z,101017.53
2023-05-24T03:24:20.777Z,101009.75
2023-05-24T03:26:47.858Z,101006.81
2023-05-24T03:29:14.631Z,101008.50
2023-05-24T03:31:41.430Z,101010.16
2023-05-24T03:34:08.164Z,101011.41
2023-05-24T03:36:34.969Z,101011.44
2023-05-24T03:39:03.939Z,101011.00
2023-05-24T03:41:31.351Z,101002.34
2023-05-24T03:43:58.095Z,101000.69
2023-05-24T03:46:24.936Z,100999.22
2023-05-24T03:48:51.711Z,100995.44
2023-05-24T03:51:18.495Z,100993.75
2023-05-24T03:53:45.283Z,100997.94
2023-05-24T03:56:12.053Z,100994.16
2023-05-24T03:58:38.804Z,100995.03
2023-05-24T04:01:05.573Z,100992.91
2023-05-24T04:03:34.272Z,100989.97
2023-05-24T04:06:01.196Z,100991.88
2023-05-24T04:08:27.931Z,100992.50
2023-05-24T04:10:54.655Z,100997.56
2023-05-24T04:13:21.356Z,100992.69
2023-05-24T04:15:48.218Z,100991.22
2023-05-24T04:18:15.033Z,100992.91
2023-05-24T04:20:42.089Z,100982.41
2023-05-24T04:23:09.043Z,100990.81
2023-05-24T04:25:35.829Z,100998.00
2023-05-24T04:28:06.262Z,101001.78
2023-05-24T04:30:33.052Z,100998.84
2023-05-24T04:32:59.933Z,100996.75
2023-05-24T04:35:26.738Z,101004.31
2023-05-24T04:37:53.613Z,101006.41
2023-05-24T04:40:23.288Z,101001.78
2023-05-24T04:42:50.850Z,100989.56
2023-05-24T04:45:17.692Z,100990.81
2023-05-24T04:47:44.542Z,100988.69
2023-05-24T04:50:11.312Z,100989.50
2023-05-24T04:52:38.113Z,100994.13
2023-05-24T04:55:05.205Z,100991.16
2023-05-24T04:57:31.933Z,101000.81
2023-05-24T04:59:59.003Z,100989.00
2023-05-24T05:02:27.221Z,100984.34
2023-05-24T05:04:54.020Z,100988.94
2023-05-24T05:07:20.733Z,100989.31
2023-05-24T05:09:47.768Z,100982.56
2023-05-24T05:12:14.519Z,100986.50
2023-05-24T05:14:41.333Z,100999.53
2023-05-24T05:17:08.187Z,100995.06
2023-05-24T05:19:35.834Z,100999.25
2023-05-24T05:22:02.672Z,100997.91
2023-05-24T05:24:29.506Z,101002.53
2023-05-24T05:26:56.467Z,101005.47
2023-05-24T05:29:24.541Z,101002.88
2023-05-24T05:31:51.631Z,100993.75
2023-05-24T05:34:19.616Z,100995.44
2023-05-24T05:36:46.430Z,101003.59
2023-05-24T05:39:13.233Z,100997.06
2023-05-24T05:41:40.619Z,101006.25
2023-05-24T05:44:07.312Z,101000.94
2023-05-24T05:46:34.061Z,101007.59
2023-05-24T05:49:00.920Z,101013.00
2023-05-24T05:51:27.702Z,101013.66
2023-05-24T05:53:54.505Z,101014.03
2023-05-24T05:56:21.339Z,101014.97
2023-05-24T05:58:48.100Z,101021.00
2023-05-24T06:01:16.095Z,101017.38
2023-05-24T06:03:43.015Z,101015.53
2023-05-24T06:06:09.935Z,101023.31
2023-05-24T06:08:36.659Z,101014.78
2023-05-24T06:11:03.554Z,101015.53
2023-05-24T06:13:31.419Z,101019.66
2023-05-24T06:15:59.036Z,101011.78
2023-05-24T06:18:27.672Z,101020.13
2023-05-24T06:20:54.496Z,101010.00
2023-05-24T06:23:21.747Z,101014.09
2023-05-24T06:25:48.617Z,101015.78
2023-05-24T06:28:15.459Z,101005.19
2023-05-24T06:30:42.551Z,101005.31
2023-05-24T06:33:09.508Z,101009.16
2023-05-24T06:35:36.240Z,101012.38
2023-05-24T06:38:02.986Z,101009.88
2023-05-24T06:40:29.728Z,101018.50
2023-05-24T06:42:58.702Z,101028.09
2023-05-24T06:45:25.551Z,101030.84
2023-05-24T06:47:52.425Z,101022.16
2023-05-24T06:50:19.573Z,101017.59
2023-05-24T06:52:46.364Z,101024.66
2023-05-24T06:55:13.134Z,101020.47
2023-05-24T06:57:40.166Z,101025.53
2023-05-24T07:00:12.103Z,101013.44
2023-05-24T07:02:39.520Z,101018.69
2023-05-24T07:05:12.219Z,101017.63
2023-05-24T07:07:40.201Z,101014.53
2023-05-24T07:10:13.834Z,101011.28
2023-05-24T07:12:40.950Z,101014.88
2023-05-24T07:15:10.020Z,101013.91
2023-05-24T07:17:37.228Z,101027.56
2023-05-24T07:20:07.602Z,101017.72
2023-05-24T07:22:34.577Z,101018.28
2023-05-24T07:25:01.780Z,101028.59
2023-05-24T07:27:28.801Z,101035.50
2023-05-24T07:29:56.199Z,101037.50
2023-05-24T07:32:23.615Z,101035.00
2023-05-24T07:34:50.620Z,101027.34
2023-05-24T07:37:17.781Z,101030.56
2023-05-24T07:39:44.869Z,101030.09
2023-05-24T07:42:12.108Z,101017.47
2023-05-24T07:44:39.317Z,101025.69
2023-05-24T07:47:06.530Z,101023.66
2023-05-24T07:49:33.441Z,101023.66
2023-05-24T07:52:00.380Z,101032.25
2023-05-24T07:54:27.098Z,101027.94
2023-05-24T07:56:53.905Z,101024.59
2023-05-24T07:59:20.798Z,101034.25
2023-05-24T08:01:48.222Z,101032.34
2023-05-24T08:04:15.019Z,101038.34
2023-05-24T08:06:41.934Z,101042.75
2023-05-24T08:09:09.240Z,101045.44
2023-05-24T08:11:36.179Z,101028.50
2023-05-24T08:14:03.806Z,101027.72
2023-05-24T08:16:32.085Z,101028.41
2023-05-24T08:18:59.617Z,101031.75
2023-05-24T08:21:27.904Z,101029.34
2023-05-24T08:23:55.030Z,101042.41
2023-05-24T08:26:22.267Z,101041.09
2023-05-24T08:28:49.042Z,101036.66
2023-05-24T08:31:16.660Z,101026.53
2023-05-24T08:33:44.259Z,101032.53
2023-05-24T08:36:11.047Z,101020.84
2023-05-24T08:38:38.268Z,101013.75
2023-05-24T08:41:09.537Z,101023.88
2023-05-24T08:43:38.096Z,101021.59
2023-05-24T08:46:05.978Z,101019.59
2023-05-24T08:48:34.088Z,101031.63
2023-05-24T08:51:00.986Z,101026.69
2023-05-24T08:53:28.159Z,101027.22
2023-05-24T08:55:56.232Z,101029.59
2023-05-24T08:58:23.339Z,101021.59
2023-05-24T09:00:50.114Z,101019.53
2023-05-24T09:03:18.765Z,101018.31
2023-05-24T09:05:46.298Z,101013.09
2023-05-24T09:08:18.268Z,101021.16
2023-05-24T09:10:55.087Z,101021.09
2023-05-24T09:13:24.991Z,101015.84
2023-05-24T09:15:52.131Z,101025.34
2023-05-24T09:18:19.471Z,101029.97
2023-05-24T09:20:46.577Z,101027.13
2023-05-24T09:23:14.764Z,101025.34
2023-05-24T09:25:46.226Z,101009.16
2023-05-24T09:28:15.170Z,101010.41
2023-05-24T09:30:46.354Z,101009.75
2023-05-24T09:33:13.694Z,101011.09
2023-05-24T09:35:48.245Z,101002.31
2023-05-24T09:38:19.108Z,101010.94
2023-05-24T09:40:46.931Z,101003.28
2023-05-24T09:43:13.836Z,101000.66
2023-05-24T09:45:46.907Z,100994.78
2023-05-24T09:48:15.351Z,100994.72
2023-05-24T09:50:42.590Z,100984.38
2023-05-24T09:53:09.999Z,101000.53
2023-05-24T09:55:39.131Z,100994.56
2023-05-24T09:58:09.022Z,100997.72
2023-05-24T10:00:40.329Z,100991.41
2023-05-24T10:03:10.844Z,100992.69
2023-05-24T10:05:39.893Z,100983.47
2023-05-24T10:08:06.973Z,100991.44
2023-05-24T10:10:34.193Z,100981.31
2023-05-24T10:13:02.330Z,100973.00
2023-05-24T10:15:30.333Z,100989.16
2023-05-24T10:18:00.671Z,100985.72
2023-05-24T10:20:28.684Z,100985.22
2023-05-24T10:23:03.605Z,100982.00
2023-05-24T10:25:33.603Z,100980.09
2023-05-24T10:28:10.260Z,100976.91
2023-05-24T10:31:16.161Z,100967.25
2023-05-24T10:33:45.406Z,100959.31
2023-05-24T10:36:14.205Z,100961.03
2023-05-24T10:38:41.256Z,100963.66
2023-05-24T10:41:08.963Z,100963.59
2023-05-24T10:43:36.707Z,100970.53
2023-05-24T10:46:05.616Z,100968.41
2023-05-24T10:48:33.758Z,100968.44
2023-05-24T10:51:02.504Z,100970.78
2023-05-24T10:53:29.384Z,100956.59
2023-05-24T10:56:01.249Z,100968.84
2023-05-24T10:58:35.467Z,100963.00
2023-05-24T11:01:03.129Z,100966.72
2023-05-24T11:03:33.752Z,100967.53
2023-05-24T11:06:00.699Z,100962.56
2023-05-24T11:08:33.559Z,100962.06
2023-05-24T11:13:41.070Z,100981.97
2023-05-24T11:16:08.113Z,100980.63
2023-05-24T11:18:38.742Z,100963.16
2023-05-24T11:21:08.876Z,100974.31
2023-05-24T11:23:38.340Z,100968.34
2023-05-24T11:26:07.413Z,100965.75
2023-05-24T11:28:37.757Z,100963.09
2023-05-24T11:31:09.937Z,100955.16
2023-05-24T11:33:42.740Z,100958.00
2023-05-24T11:36:09.955Z,100962.47
2023-05-24T11:38:37.625Z,100954.13
2023-05-24T11:41:05.427Z,100955.56
2023-05-24T11:43:35.355Z,100956.41
2023-05-24T11:46:02.781Z,100961.16
2023-05-24T11:48:30.721Z,100957.50
2023-05-24T11:50:58.102Z,100962.56
2023-05-24T11:53:25.041Z,100972.00
2023-05-24T11:55:54.530Z,100962.59
2023-05-24T11:58:46.367Z,100962.31
2023-05-24T12:01:27.456Z,100967.63
2023-05-24T12:03:55.386Z,100969.59
2023-05-24T12:06:23.113Z,100956.56
2023-05-24T12:08:50.087Z,100971.81
2023-05-24T12:11:17.580Z,100960.34
2023-05-24T12:13:45.129Z,100965.13
2023-05-24T12:16:14.178Z,100960.16
2023-05-24T12:18:48.502Z,100964.31
2023-05-24T12:21:23.029Z,100956.06
2023-05-24T12:23:50.011Z,100956.56
2023-05-24T12:26:20.961Z,100954.13
2023-05-24T12:28:53.936Z,100950.53
2023-05-24T12:31:21.429Z,100944.63
2023-05-24T12:33:48.792Z,100946.09
2023-05-24T12:36:16.267Z,100952.47
2023-05-24T12:38:43.052Z,100946.38
2023-05-24T12:41:13.928Z,100956.97
2023-05-24T12:43:44.711Z,100949.16
2023-05-24T12:46:11.637Z,100939.47
2023-05-24T12:48:38.657Z,100947.25
2023-05-24T12:51:06.420Z,100941.13
2023-05-24T12:53:33.241Z,100958.66
2023-05-24T12:56:03.776Z,100961.13
2023-05-24T12:58:30.904Z,100953.91
2023-05-24T13:00:58.014Z,100962.81
2023-05-24T13:03:25.191Z,100969.47
2023-05-24T13:05:52.133Z,100970.59
2023-05-24T13:08:19.094Z,100948.09
2023-05-24T13:10:46.056Z,100950.03
2023-05-24T13:13:15.089Z,100937.50
2023-05-24T13:15:44.695Z,100948.38
2023-05-24T13:18:11.697Z,100943.34
2023-05-24T13:20:38.856Z,100939.19
2023-05-24T13:23:06.208Z,100947.81
2023-05-24T13:25:32.954Z,100951.13
2023-05-24T13:28:01.782Z,100944.47
2023-05-24T13:30:28.654Z,100933.91
2023-05-24T13:32:56.919Z,100943.38
2023-05-24T13:35:24.041Z,100939.16
2023-05-24T13:37:53.064Z,100941.66
2023-05-24T13:40:20.826Z,100950.53
2023-05-24T13:42:48.063Z,100944.47
2023-05-24T13:45:15.481Z,100955.84
2023-05-24T13:47:43.340Z,100952.53
2023-05-24T13:50:11.520Z,100960.56
2023-05-24T13:52:38.670Z,100982.28
2023-05-24T13:55:06.218Z,100959.19
2023-05-24T13:57:49.744Z,100945.56
2023-05-24T14:00:18.806Z,100943.34
2023-05-24T14:02:45.618Z,100953.91
2023-05-24T14:07:42.573Z,100944.19
2023-05-24T14:10:09.827Z,100932.53
2023-05-24T14:12:36.662Z,100935.03
2023-05-24T14:15:05.097Z,100940.59
2023-05-24T14:17:32.058Z,100942.25
2023-05-24T14:19:58.837Z,100933.91
2023-05-24T14:22:26.203Z,100941.41
2023-05-24T14:24:53.600Z,100934.72
2023-05-24T14:27:23.232Z,100949.75
2023-05-24T14:29:51.637Z,100940.56
2023-05-24T14:32:18.385Z,100936.94
2023-05-24T14:34:45.538Z,100929.19
2023-05-24T14:37:12.278Z,100934.75
2023-05-24T14:39:39.078Z,100936.16
2023-05-24T14:42:06.337Z,100936.69
2023-05-24T14:44:33.096Z,100945.56
2023-05-24T14:47:00.972Z,100951.41
2023-05-24T14:49:27.757Z,100949.47
2023-05-24T14:51:54.759Z,100940.25
2023-05-24T14:54:21.887Z,100945.81
2023-05-24T14:56:50.321Z,100950.81
2023-05-24T14:59:17.165Z,100946.94
2023-05-24T15:01:50.052Z,100939.13
2023-05-24T15:04:19.002Z,100939.44
2023-05-24T15:06:46.380Z,100937.47
2023-05-24T15:09:13.624Z,100952.75
2023-05-24T15:11:40.530Z,100946.63
2023-05-24T15:14:07.421Z,100939.41
2023-05-24T15:16:34.536Z,100941.66
2023-05-24T15:19:01.460Z,100945.81
2023-05-24T15:21:28.183Z,100949.97
2023-05-24T15:23:55.113Z,100946.03
2023-05-24T15:26:22.806Z,100948.03
2023-05-24T15:28:49.743Z,100949.16
2023-05-24T15:31:16.829Z,100933.56
2023-05-24T15:33:45.124Z,100937.75
2023-05-24T15:36:15.584Z,100939.19
2023-05-24T15:38:43.104Z,100949.97
2023-05-24T15:41:09.917Z,100947.19
2023-05-24T15:43:37.709Z,100952.75
2023-05-24T15:46:04.807Z,100939.38
2023-05-24T15:48:32.891Z,100946.63
2023-05-24T15:51:46.354Z,100929.09
2023-05-24T15:53:49.958Z,100940.00
2023-05-24T15:56:16.934Z,100933.31
2023-05-24T15:58:43.789Z,100939.34
2023-05-24T16:01:10.803Z,100947.69
2023-05-24T16:03:38.415Z,100938.75
2023-05-24T16:06:07.068Z,100936.56
2023-05-24T16:08:34.112Z,100947.69
2023-05-24T16:11:08.659Z,100944.31
2023-05-24T16:13:46.389Z,100943.47
2023-05-24T16:16:13.214Z,100937.13
2023-05-24T16:18:40.003Z,100944.31
2023-05-24T16:21:06.898Z,100936.56
2023-05-24T16:23:33.718Z,100933.72
2023-05-24T16:26:00.789Z,100963.69
2023-05-24T16:28:28.112Z,100949.19
2023-05-24T16:30:56.435Z,100944.25
2023-05-24T16:33:24.851Z,100944.28
2023-05-24T16:35:55.953Z,100949.00
2023-05-24T16:38:24.072Z,100953.13
2023-05-24T16:40:54.174Z,100940.06
2023-05-24T16:43:21.682Z,100950.19
2023-05-24T16:45:50.977Z,100943.34
2023-05-24T16:48:21.659Z,100942.84
2023-05-24T16:50:50.471Z,100942.50
2023-05-24T16:53:17.310Z,100934.16
2023-05-24T16:55:44.436Z,100933.34
2023-05-24T16:58:11.294Z,100937.56
2023-05-24T17:00:38.057Z,100935.31
2023-05-24T17:03:06.635Z,100932.19
2023-05-24T17:05:33.537Z,100936.94
2023-05-24T17:08:02.912Z,100935.53
2023-05-24T17:10:29.702Z,100941.34
2023-05-24T17:12:56.469Z,100936.91
2023-05-24T17:15:23.218Z,100935.13
2023-05-24T17:17:51.661Z,100931.31
2023-05-24T17:20:18.620Z,100933.31
2023-05-24T17:22:45.390Z,100933.81
2023-05-24T17:25:13.548Z,100937.69
2023-05-24T17:27:40.316Z,100941.88
2023-05-24T17:30:07.677Z,100950.09
2023-05-24T17:32:34.504Z,100951.78
2023-05-24T17:35:01.267Z,100957.34
2023-05-24T17:37:28.058Z,100958.31
2023-05-24T17:39:54.787Z,100961.41
2023-05-24T17:42:21.817Z,100964.47
2023-05-24T17:44:48.574Z,100968.34
2023-05-24T17:47:15.336Z,100966.56
2023-05-24T17:49:42.081Z,100967.25
2023-05-24T17:52:08.808Z,100972.78
2023-05-24T17:54:35.570Z,100970.28
2023-05-24T17:57:03.072Z,100972.97
2023-05-24T17:59:29.957Z,100980.59
2023-05-24T18:01:57.080Z,100996.41
2023-05-24T18:04:23.820Z,100983.25
2023-05-24T18:06:50.620Z,100993.59
2023-05-24T18:09:17.415Z,100985.00
2023-05-24T18:11:44.316Z,100992.16
2023-05-24T18:14:11.335Z,100988.34
2023-05-24T18:16:38.215Z,100990.59
2023-05-24T18:19:05.055Z,100992.84
2023-05-24T18:21:32.580Z,100987.44
2023-05-24T18:23:59.370Z,100993.06
2023-05-24T18:26:26.377Z,100989.97
2023-05-24T18:28:53.121Z,100992.94
2023-05-24T18:31:20.499Z,101002.13
2023-05-24T18:33:49.748Z,100998.91
2023-05-24T18:36:16.636Z,101011.66
2023-05-24T18:38:47.465Z,101015.91
2023-05-24T18:41:15.515Z,101010.38
2023-05-24T18:43:43.193Z,101012.09
2023-05-24T18:46:13.607Z,101018.53
2023-05-24T18:48:45.266Z,101016.31
2023-05-24T18:51:13.614Z,101023.88
2023-05-24T18:53:40.644Z,101023.41
2023-05-24T18:56:07.456Z,101033.47
2023-05-24T18:58:34.272Z,101024.13
2023-05-24T19:01:01.258Z,101028.78
2023-05-24T19:03:28.380Z,101024.25
2023-05-24T19:05:55.194Z,101025.94
2023-05-24T19:08:21.958Z,101029.66
2023-05-24T19:10:48.792Z,101036.84
2023-05-24T19:13:15.836Z,101038.00
2023-05-24T19:15:42.881Z,101037.22
2023-05-24T19:18:09.878Z,101036.69
2023-05-24T19:20:36.835Z,101032.06
2023-05-24T19:23:03.667Z,101039.00
2023-05-24T19:25:31.380Z,101035.63
2023-05-24T19:28:00.505Z,101035.56
2023-05-24T19:30:27.859Z,101039.53
2023-05-24T19:32:54.786Z,101035.78
2023-05-24T19:35:21.698Z,101036.28
2023-05-24T19:37:49.587Z,101036.75
2023-05-24T19:40:16.546Z,101043.59
2023-05-24T19:42:43.433Z,101036.19
2023-05-24T19:45:10.666Z,101043.25
2023-05-24T19:47:37.486Z,101044.41
2023-05-24T19:50:07.141Z,101049.25
2023-05-24T19:52:33.890Z,101038.72
2023-05-24T19:55:00.710Z,101035.38
2023-05-24T19:57:27.587Z,101029.97
2023-05-24T19:59:54.359Z,101040.50
2023-05-24T20:02:21.221Z,101032.59
2023-05-24T20:04:47.936Z,101039.41
2023-05-24T20:07:15.258Z,101032.75
2023-05-24T20:09:42.097Z,101027.44
2023-05-24T20:12:08.963Z,101032.97
2023-05-24T20:14:36.072Z,101049.34
2023-05-24T20:17:03.077Z,101047.34
2023-05-24T20:19:29.822Z,101046.59
2023-05-24T20:21:57.304Z,101053.44
2023-05-24T20:24:26.987Z,101053.69
2023-05-24T20:26:53.768Z,101057.16
2023-05-24T20:29:20.491Z,101052.22
2023-05-24T20:31:47.479Z,101050.31
2023-05-24T20:34:14.855Z,101050.94
2023-05-24T20:36:46.397Z,101060.13
2023-05-24T20:39:13.335Z,101060.00
2023-05-24T20:41:40.099Z,101076.28
2023-05-24T20:44:06.887Z,101076.16
2023-05-24T20:46:33.976Z,101073.75
2023-05-24T20:49:01.211Z,101069.56
2023-05-24T20:51:27.981Z,101071.94
2023-05-24T20:53:54.888Z,101080.19
2023-05-24T20:56:23.297Z,101070.13
2023-05-24T20:58:53.117Z,101075.19
2023-05-24T21:01:20.957Z,101072.44
2023-05-24T21:03:47.891Z,101074.81
2023-05-24T21:06:15.177Z,101074.59
2023-05-24T21:08:42.929Z,101083.06
2023-05-24T21:11:09.823Z,101065.97
2023-05-24T21:13:36.612Z,101073.38
2023-05-24T21:16:03.674Z,101078.91
2023-05-24T21:18:30.599Z,101076.72
2023-05-24T21:20:57.358Z,101080.19
2023-05-24T21:23:24.080Z,101086.16
2023-05-24T21:25:51.039Z,101081.72
2023-05-24T21:28:18.306Z,101085.31
2023-05-24T21:30:46.356Z,101090.56
2023-05-24T21:33:13.227Z,101098.13
2023-05-24T21:35:40.019Z,101091.91
2023-05-24T21:38:06.982Z,101097.63
2023-05-24T21:40:34.292Z,101095.34
2023-05-24T21:43:01.150Z,101090.31
2023-05-24T21:45:27.895Z,101097.03
2023-05-24T21:47:54.751Z,101101.31
2023-05-24T21:50:21.564Z,101098.56
2023-05-24T21:52:48.403Z,101099.00
2023-05-24T21:55:15.230Z,101094.44
2023-05-24T21:57:42.015Z,101101.75
2023-05-24T22:00:09.394Z,101099.78
2023-05-24T22:02:37.097Z,101099.16
2023-05-24T22:05:05.376Z,101108.22
2023-05-24T22:07:32.259Z,101118.69
2023-05-24T22:09:59.477Z,101117.84
2023-05-24T22:12:26.477Z,101111.53
2023-05-24T22:14:53.392Z,101122.53
2023-05-24T22:17:21.973Z,101116.31
2023-05-24T22:19:49.079Z,101108.66
2023-05-24T22:22:19.802Z,101106.84
2023-05-24T22:24:47.347Z,101107.31
2023-05-24T22:27:16.342Z,101125.34
2023-05-24T22:29:43.737Z,101119.94
2023-05-24T22:32:10.882Z,101126.28
2023-05-24T22:34:37.752Z,101128.88
2023-05-24T22:37:05.050Z,101131.47
2023-05-24T22:39:31.824Z,101124.91
2023-05-24T22:41:58.865Z,101138.25
2023-05-24T22:44:26.441Z,101140.47
2023-05-24T22:46:53.944Z,101148.50
2023-05-24T22:49:21.034Z,101141.69
2023-05-24T22:51:53.275Z,101140.59
2023-05-24T22:54:20.082Z,101141.69
2023-05-24T22:56:46.891Z,101142.66
2023-05-24T22:59:13.721Z,101155.28
2023-05-24T23:01:40.614Z,101148.41
2023-05-24T23:04:20.479Z,101157.44
2023-05-24T23:06:53.403Z,101151.94
2023-05-24T23:09:29.391Z,101148.69
2023-05-24T23:11:58.896Z,101156.06
2023-05-24T23:14:25.834Z,101149.69
2023-05-24T23:16:52.688Z,101149.69
2023-05-24T23:19:19.569Z,101159.09
2023-05-24T23:21:46.555Z,101164.22
2023-05-24T23:24:16.716Z,101160.69
2023-05-24T23:26:43.963Z,101161.38
2023-05-24T23:29:10.959Z,101165.28
2023-05-24T23:31:37.967Z,101159.25
2023-05-24T23:34:05.762Z,101162.16
2023-05-24T23:36:32.651Z,101165.50
2023-05-24T23:38:59.520Z,101168.94
2023-05-24T23:41:26.669Z,101156.66
2023-05-24T23:43:53.558Z,101163.91
2023-05-24T23:46:20.603Z,101158.94
2023-05-24T23:48:47.437Z,101165.66
2023-05-24T23:51:14.306Z,101161.84
2023-05-24T23:53:41.072Z,101161.44
2023-05-24T23:56:07.868Z,101158.63
2023-05-24T23:58:34.671Z,101160.75
